createdAt,value
2019-02-05T00:00:59.806Z,50.59
2019-02-05T00:03:29.733Z,50.75
2019-02-05T00:05:59.230Z,50.72
2019-02-05T00:08:29.421Z,50.60
2019-02-05T00:11:00.032Z,50.60
2019-02-05T00:13:29.958Z,50.57
2019-02-05T00:15:59.610Z,50.50
2019-02-05T00:18:29.118Z,50.70
2019-02-05T00:20:58.663Z,50.66
2019-02-05T00:23:28.817Z,50.75
2019-02-05T00:26:05.856Z,50.71
2019-02-05T00:28:30.477Z,50.78
2019-02-05T00:31:00.244Z,50.98
2019-02-05T00:33:30.089Z,51.23
2019-02-05T00:35:59.667Z,51.41
2019-02-05T00:38:29.453Z,51.26
2019-02-05T00:40:59.958Z,51.31
2019-02-05T00:43:29.574Z,51.71
2019-02-05T00:45:59.318Z,51.89
2019-02-05T00:48:29.355Z,51.83
2019-02-05T00:50:59.699Z,51.98
2019-02-05T00:53:29.439Z,52.05
2019-02-05T00:55:59.473Z,52.40
2019-02-05T00:58:29.077Z,51.82
2019-02-05T01:00:58.645Z,51.89
2019-02-05T01:03:28.460Z,51.92
2019-02-05T01:05:58.225Z,51.32
2019-02-05T01:08:27.794Z,51.13
2019-02-05T01:10:57.416Z,51.17
2019-02-05T01:13:26.926Z,51.00
2019-02-05T01:15:56.744Z,51.02
2019-02-05T01:18:26.524Z,50.79
2019-02-05T01:20:56.248Z,50.83
2019-02-05T01:23:25.980Z,50.70
2019-02-05T01:25:55.561Z,50.76
2019-02-05T01:28:25.685Z,51.02
2019-02-05T01:30:55.438Z,50.97
2019-02-05T01:33:25.186Z,50.97
2019-02-05T01:35:54.826Z,51.28
2019-02-05T01:38:24.673Z,51.09
2019-02-05T01:40:54.206Z,51.34
2019-02-05T01:43:23.721Z,51.23
2019-02-05T01:45:53.781Z,51.08
2019-02-05T01:48:23.285Z,51.28
2019-02-05T01:50:52.761Z,51.53
2019-02-05T01:53:23.930Z,51.66
2019-02-05T01:55:54.776Z,51.59
2019-02-05T01:58:24.416Z,51.74
2019-02-05T02:00:54.281Z,51.82
2019-02-05T02:03:24.610Z,51.98
2019-02-05T02:05:54.393Z,51.90
2019-02-05T02:08:24.229Z,51.70
2019-02-05T02:10:53.747Z,51.80
2019-02-05T02:13:23.590Z,52.16
2019-02-05T02:15:53.095Z,51.86
2019-02-05T02:18:22.982Z,52.21
2019-02-05T02:20:52.536Z,52.04
2019-02-05T02:23:22.078Z,52.06
2019-02-05T02:25:51.681Z,52.25
2019-02-05T02:28:21.519Z,52.56
2019-02-05T02:30:51.063Z,52.53
2019-02-05T02:33:20.683Z,52.65
2019-02-05T02:35:50.195Z,52.64
2019-02-05T02:38:19.785Z,52.69
2019-02-05T02:40:49.324Z,52.87
2019-02-05T02:43:18.901Z,53.01
2019-02-05T02:45:48.402Z,52.97
2019-02-05T02:48:17.931Z,53.16
2019-02-05T02:50:47.736Z,53.22
2019-02-05T02:53:17.257Z,53.24
2019-02-05T02:55:46.826Z,53.39
2019-02-05T02:58:16.671Z,53.31
2019-02-05T03:00:47.702Z,53.47
2019-02-05T03:03:18.230Z,53.47
2019-02-05T03:05:47.746Z,53.52
2019-02-05T03:08:17.318Z,53.75
2019-02-05T03:10:46.859Z,53.56
2019-02-05T03:13:16.344Z,53.88
2019-02-05T03:15:45.866Z,53.71
2019-02-05T03:18:15.797Z,53.71
2019-02-05T03:20:45.347Z,53.98
2019-02-05T03:23:14.887Z,54.66
2019-02-05T03:25:44.453Z,55.38
2019-02-05T03:28:13.984Z,55.93
2019-02-05T03:30:43.503Z,56.13
2019-02-05T03:33:13.012Z,56.15
2019-02-05T03:35:42.703Z,56.78
2019-02-05T03:38:12.449Z,56.91
2019-02-05T03:41:04.472Z,57.06
2019-02-05T03:43:35.224Z,57.43
2019-02-05T03:46:06.872Z,58.49
2019-02-05T03:48:37.026Z,59.15
2019-02-05T03:51:46.902Z,59.57
2019-02-05T03:54:51.524Z,59.41
2019-02-05T03:57:39.868Z,59.56
2019-02-05T04:00:41.776Z,59.19
2019-02-05T04:03:27.257Z,59.55
2019-02-05T04:06:39.730Z,59.54
2019-02-05T04:09:26.179Z,58.99
2019-02-05T04:12:41.143Z,58.51
2019-02-05T04:15:35.929Z,58.40
2019-02-05T04:18:32.563Z,58.38
2019-02-05T04:21:45.515Z,58.94
2019-02-05T04:24:59.684Z,59.07
2019-02-05T04:28:03.772Z,59.71
2019-02-05T04:31:13.065Z,59.86
2019-02-05T04:34:25.367Z,60.03
2019-02-05T04:37:20.966Z,60.06
2019-02-05T04:40:12.352Z,60.16
2019-02-05T04:42:55.198Z,60.22
2019-02-05T04:45:44.158Z,60.34
2019-02-05T04:48:51.286Z,60.36
2019-02-05T04:51:55.699Z,60.42
2019-02-05T04:54:51.885Z,60.52
2019-02-05T04:57:56.679Z,60.65
2019-02-05T05:00:40.061Z,60.63
2019-02-05T05:03:36.921Z,60.73
2019-02-05T05:06:43.003Z,60.70
2019-02-05T05:09:44.790Z,60.60
2019-02-05T05:12:14.386Z,60.52
2019-02-05T05:14:44.221Z,60.91
2019-02-05T05:17:13.752Z,60.92
2019-02-05T05:19:43.605Z,60.69
2019-02-05T05:22:13.343Z,60.75
2019-02-05T05:24:45.348Z,60.97
2019-02-05T05:27:16.124Z,60.83
2019-02-05T05:29:46.085Z,60.78
2019-02-05T05:32:15.670Z,60.85
2019-02-05T05:34:45.267Z,60.77
2019-02-05T05:37:13.739Z,61.00
2019-02-05T05:39:43.351Z,61.29
2019-02-05T05:42:13.190Z,60.81
2019-02-05T05:44:43.242Z,61.02
2019-02-05T05:47:12.771Z,61.09
2019-02-05T05:49:42.295Z,61.07
2019-02-05T05:52:11.801Z,61.08
2019-02-05T05:54:41.333Z,61.05
2019-02-05T05:57:10.926Z,61.37
2019-02-05T05:59:40.746Z,61.20
2019-02-05T06:02:10.259Z,61.40
2019-02-05T06:04:39.748Z,61.60
2019-02-05T06:07:09.304Z,61.81
2019-02-05T06:09:38.826Z,61.65
2019-02-05T06:12:08.634Z,61.48
2019-02-05T06:14:38.558Z,61.48
2019-02-05T06:17:08.584Z,61.74
2019-02-05T06:19:38.610Z,61.81
2019-02-05T06:22:08.578Z,61.69
2019-02-05T06:24:38.574Z,61.89
2019-02-05T06:27:08.672Z,61.92
2019-02-05T06:29:38.587Z,61.83
2019-02-05T06:32:08.838Z,62.24
2019-02-05T06:34:38.686Z,62.44
2019-02-05T06:37:08.803Z,62.44
2019-02-05T06:39:38.647Z,62.57
2019-02-05T06:42:08.625Z,62.44
2019-02-05T06:44:39.195Z,62.87
2019-02-05T06:47:09.071Z,62.98
2019-02-05T06:49:38.963Z,62.82
2019-02-05T06:52:08.972Z,62.99
2019-02-05T06:54:39.440Z,63.27
2019-02-05T06:57:09.544Z,63.22
2019-02-05T06:59:40.278Z,63.19
2019-02-05T07:02:10.767Z,63.35
2019-02-05T07:04:40.697Z,63.74
2019-02-05T07:07:10.313Z,63.92
2019-02-05T07:09:39.825Z,64.08
2019-02-05T07:12:09.436Z,64.30
2019-02-05T07:14:38.932Z,64.93
2019-02-05T07:17:08.851Z,64.76
2019-02-05T07:19:39.044Z,64.65
2019-02-05T07:22:08.718Z,64.90
2019-02-05T07:24:38.873Z,65.16
2019-02-05T07:27:09.441Z,65.06
2019-02-05T07:29:39.039Z,64.76
2019-02-05T07:32:08.931Z,64.43
2019-02-05T07:34:38.850Z,64.93
2019-02-05T07:37:08.793Z,65.31
2019-02-05T07:39:38.728Z,65.13
2019-02-05T07:42:08.807Z,65.12
2019-02-05T07:44:40.050Z,65.28
2019-02-05T07:47:09.697Z,65.65
2019-02-05T07:49:39.493Z,65.78
2019-02-05T07:52:09.370Z,65.74
2019-02-05T07:54:38.880Z,65.53
2019-02-05T07:57:09.023Z,65.41
2019-02-05T07:59:39.630Z,66.01
2019-02-05T08:02:09.751Z,65.69
2019-02-05T08:04:39.563Z,65.96
2019-02-05T08:07:10.385Z,66.08
2019-02-05T08:09:39.899Z,65.81
2019-02-05T08:12:09.650Z,65.86
2019-02-05T08:14:39.179Z,66.34
2019-02-05T08:17:08.874Z,66.30
2019-02-05T08:19:39.087Z,66.59
2019-02-05T08:22:09.687Z,66.59
2019-02-05T08:24:39.243Z,66.77
2019-02-05T08:27:09.126Z,66.42
2019-02-05T08:29:38.975Z,65.81
2019-02-05T08:32:08.874Z,66.32
2019-02-05T08:34:38.965Z,67.11
2019-02-05T08:37:09.165Z,66.75
2019-02-05T08:39:39.230Z,66.55
2019-02-05T08:42:09.018Z,67.15
2019-02-05T08:44:39.205Z,67.22
2019-02-05T08:47:09.178Z,67.11
2019-02-05T08:49:38.904Z,67.45
2019-02-05T08:52:09.250Z,67.48
2019-02-05T08:54:39.270Z,67.78
2019-02-05T08:57:09.381Z,67.81
2019-02-05T08:59:39.007Z,67.50
2019-02-05T09:02:09.056Z,67.33
2019-02-05T09:04:39.171Z,67.42
2019-02-05T09:07:08.984Z,67.25
2019-02-05T09:09:38.963Z,67.25
2019-02-05T09:12:09.503Z,67.30
2019-02-05T09:14:39.014Z,67.18
2019-02-05T09:17:08.990Z,66.91
2019-02-05T09:19:39.016Z,66.55
2019-02-05T09:22:08.990Z,66.53
2019-02-05T09:24:39.042Z,66.66
2019-02-05T09:27:09.021Z,66.00
2019-02-05T09:29:39.104Z,66.25
2019-02-05T09:32:09.122Z,66.81
2019-02-05T09:34:40.874Z,66.91
2019-02-05T09:37:10.440Z,67.02
2019-02-05T09:39:40.179Z,67.42
2019-02-05T09:42:09.963Z,67.39
2019-02-05T09:44:39.555Z,67.34
2019-02-05T09:47:09.057Z,67.03
2019-02-05T09:49:39.157Z,67.01
2019-02-05T09:52:09.304Z,66.67
2019-02-05T09:54:39.298Z,66.47
2019-02-05T09:57:09.410Z,66.26
2019-02-05T09:59:45.496Z,66.30
2019-02-05T10:02:10.434Z,66.07
2019-02-05T10:04:40.045Z,66.21
2019-02-05T10:07:09.579Z,66.29
2019-02-05T10:09:39.448Z,66.39
2019-02-05T10:12:09.439Z,66.08
2019-02-05T10:14:39.195Z,66.07
2019-02-05T10:17:09.142Z,65.68
2019-02-05T10:19:39.364Z,65.99
2019-02-05T10:22:09.478Z,65.43
2019-02-05T10:24:39.136Z,65.60
2019-02-05T10:27:09.269Z,65.28
2019-02-05T10:29:40.065Z,65.20
2019-02-05T10:32:09.826Z,65.41
2019-02-05T10:34:39.334Z,65.34
2019-02-05T10:37:09.210Z,65.28
2019-02-05T10:39:39.490Z,65.07
2019-02-05T10:42:09.549Z,64.57
2019-02-05T10:44:40.427Z,64.93
2019-02-05T10:47:10.208Z,64.73
2019-02-05T10:49:39.979Z,64.68
2019-02-05T10:52:09.567Z,64.64
2019-02-05T10:54:39.171Z,64.75
2019-02-05T10:57:09.297Z,64.34
2019-02-05T10:59:39.296Z,64.61
2019-02-05T11:02:09.536Z,64.82
2019-02-05T11:04:39.218Z,64.21
2019-02-05T11:07:09.256Z,64.21
2019-02-05T11:09:39.787Z,64.15
2019-02-05T11:12:09.395Z,64.15
2019-02-05T11:14:39.451Z,64.24
2019-02-05T11:17:09.268Z,64.07
2019-02-05T11:19:39.321Z,64.31
2019-02-05T11:22:09.258Z,64.37
2019-02-05T11:24:39.250Z,64.60
2019-02-05T11:27:09.287Z,64.95
2019-02-05T11:29:39.393Z,65.44
2019-02-05T11:32:09.295Z,65.31
2019-02-05T11:34:39.390Z,64.64
2019-02-05T11:37:09.425Z,64.50
2019-02-05T11:39:39.788Z,64.41
2019-02-05T11:42:09.659Z,64.34
2019-02-05T11:44:39.499Z,64.51
2019-02-05T11:47:09.346Z,64.28
2019-02-05T11:49:39.347Z,63.70
2019-02-05T11:52:09.980Z,64.35
2019-02-05T11:54:39.592Z,64.26
2019-02-05T11:57:09.429Z,64.60
2019-02-05T11:59:39.597Z,64.13
2019-02-05T12:02:09.670Z,63.97
2019-02-05T12:04:39.311Z,64.60
2019-02-05T12:07:09.363Z,64.64
2019-02-05T12:09:40.147Z,64.73
2019-02-05T12:12:09.754Z,64.59
2019-02-05T12:14:39.322Z,64.26
2019-02-05T12:17:09.495Z,64.76
2019-02-05T12:19:39.661Z,64.83
2019-02-05T12:22:09.667Z,64.70
2019-02-05T12:24:39.614Z,64.69
2019-02-05T12:27:09.479Z,64.66
2019-02-05T12:29:39.389Z,64.79
2019-02-05T12:32:09.403Z,65.00
2019-02-05T12:34:39.669Z,65.44
2019-02-05T12:37:09.470Z,65.02
2019-02-05T12:39:39.468Z,65.06
2019-02-05T12:42:09.559Z,64.90
2019-02-05T12:44:39.517Z,65.03
2019-02-05T12:47:09.552Z,65.81
2019-02-05T12:49:39.430Z,66.03
2019-02-05T12:52:09.529Z,65.92
2019-02-05T12:54:39.694Z,64.88
2019-02-05T12:57:09.502Z,65.89
2019-02-05T12:59:39.480Z,65.72
2019-02-05T13:02:09.818Z,65.91
2019-02-05T13:04:39.570Z,66.30
2019-02-05T13:07:09.868Z,66.36
2019-02-05T13:09:39.522Z,66.51
2019-02-05T13:12:09.903Z,67.05
2019-02-05T13:14:40.391Z,67.17
2019-02-05T13:17:10.058Z,67.10
2019-02-05T13:19:39.873Z,67.08
2019-02-05T13:22:09.795Z,66.97
2019-02-05T13:24:39.577Z,67.01
2019-02-05T13:27:09.781Z,67.01
2019-02-05T13:29:39.533Z,66.75
2019-02-05T13:32:09.588Z,66.77
2019-02-05T13:34:39.638Z,66.79
2019-02-05T13:37:09.543Z,66.51
2019-02-05T13:39:39.840Z,66.51
2019-02-05T13:42:09.562Z,65.79
2019-02-05T13:44:39.609Z,66.20
2019-02-05T13:47:09.818Z,65.81
2019-02-05T13:49:39.603Z,66.15
2019-02-05T13:52:09.674Z,66.18
2019-02-05T13:54:39.921Z,66.23
2019-02-05T13:57:09.803Z,65.84
2019-02-05T13:59:39.742Z,65.94
2019-02-05T14:02:09.845Z,66.09
2019-02-05T14:04:39.847Z,66.02
2019-02-05T14:07:09.996Z,66.27
2019-02-05T14:09:40.109Z,66.32
2019-02-05T14:12:09.994Z,66.12
2019-02-05T14:14:40.194Z,66.06
2019-02-05T14:17:10.499Z,66.58
2019-02-05T14:19:40.286Z,67.02
2019-02-05T14:22:10.348Z,67.38
2019-02-05T14:24:40.839Z,67.31
2019-02-05T14:27:10.619Z,67.23
2019-02-05T14:29:40.336Z,67.18
2019-02-05T14:32:10.787Z,67.03
2019-02-05T14:34:40.458Z,67.09
2019-02-05T14:37:10.472Z,67.24
2019-02-05T14:39:40.578Z,67.36
2019-02-05T14:42:10.475Z,67.21
2019-02-05T14:44:40.491Z,67.26
2019-02-05T14:47:10.608Z,67.45
2019-02-05T14:49:40.555Z,67.03
2019-02-05T14:52:11.214Z,67.90
2019-02-05T14:54:40.973Z,68.24
2019-02-05T14:57:10.890Z,68.10
2019-02-05T14:59:40.743Z,67.71
2019-02-05T15:02:10.858Z,67.70
2019-02-05T15:04:40.883Z,67.60
2019-02-05T15:07:10.896Z,67.69
2019-02-05T15:09:41.319Z,67.90
2019-02-05T15:12:11.408Z,68.44
2019-02-05T15:14:48.040Z,68.07
2019-02-05T15:17:19.606Z,67.95
2019-02-05T15:19:49.157Z,67.83
2019-02-05T15:22:18.797Z,68.43
2019-02-05T15:24:48.375Z,68.48
2019-02-05T15:27:18.029Z,69.06
2019-02-05T15:29:47.513Z,69.33
2019-02-05T15:32:36.113Z,69.88
2019-02-05T15:35:06.678Z,69.91
2019-02-05T15:37:36.225Z,70.16
2019-02-05T15:40:07.738Z,70.02
2019-02-05T15:42:37.311Z,70.26
2019-02-05T15:45:07.885Z,70.50
2019-02-05T15:47:37.719Z,70.84
2019-02-05T15:50:07.458Z,70.75
2019-02-05T15:52:37.018Z,70.77
2019-02-05T15:55:06.988Z,70.90
2019-02-05T15:57:36.567Z,70.68
2019-02-05T16:00:08.037Z,70.56
2019-02-05T16:02:38.432Z,70.55
2019-02-05T16:05:08.885Z,70.73
2019-02-05T16:07:38.518Z,70.64
2019-02-05T16:10:10.092Z,71.06
2019-02-05T16:12:39.655Z,71.24
2019-02-05T16:15:09.894Z,70.93
2019-02-05T16:17:39.763Z,70.49
2019-02-05T16:20:10.571Z,70.17
2019-02-05T16:22:40.402Z,70.66
2019-02-05T16:25:11.693Z,70.66
2019-02-05T16:27:41.300Z,70.47
2019-02-05T16:30:14.558Z,70.47
2019-02-05T16:32:44.502Z,70.38
2019-02-05T16:35:14.589Z,70.09
2019-02-05T16:37:44.387Z,70.40
2019-02-05T16:40:16.960Z,70.66
2019-02-05T16:42:46.561Z,70.67
2019-02-05T16:45:18.846Z,70.84
2019-02-05T16:47:48.413Z,70.46
2019-02-05T16:50:23.209Z,70.49
2019-02-05T16:52:53.326Z,70.27
2019-02-05T16:55:22.917Z,70.40
2019-02-05T16:57:52.992Z,70.36
2019-02-05T17:00:27.763Z,70.17
2019-02-05T17:02:57.660Z,70.01
2019-02-05T17:05:28.996Z,70.23
2019-02-05T17:07:59.371Z,70.25
2019-02-05T17:10:29.615Z,69.99
2019-02-05T17:12:59.212Z,69.93
2019-02-05T17:15:28.812Z,69.81
2019-02-05T17:17:59.072Z,69.71
2019-02-05T17:20:29.594Z,69.83
2019-02-05T17:23:00.697Z,69.89
2019-02-05T17:25:30.774Z,70.05
2019-02-05T17:28:00.581Z,69.76
2019-02-05T17:30:32.348Z,69.44
2019-02-05T17:33:01.981Z,69.40
2019-02-05T17:35:31.618Z,69.33
2019-02-05T17:38:01.594Z,69.58
2019-02-05T17:40:31.237Z,69.58
2019-02-05T17:43:00.786Z,69.83
2019-02-05T17:45:32.239Z,69.60
2019-02-05T17:48:03.788Z,69.39
2019-02-05T17:50:33.687Z,69.80
2019-02-05T17:53:04.760Z,69.71
2019-02-05T17:55:34.845Z,69.88
2019-02-05T17:58:04.443Z,69.73
2019-02-05T18:01:05.009Z,69.55
2019-02-05T18:03:34.906Z,69.60
2019-02-05T18:06:05.315Z,69.49
2019-02-05T18:08:35.180Z,69.30
2019-02-05T18:11:06.040Z,68.90
2019-02-05T18:13:35.597Z,69.04
2019-02-05T18:16:10.251Z,69.00
2019-02-05T18:18:39.904Z,69.12
2019-02-05T18:21:09.492Z,68.93
2019-02-05T18:23:39.083Z,68.87
2019-02-05T18:26:08.682Z,68.65
2019-02-05T18:28:38.745Z,68.61
2019-02-05T18:31:08.690Z,68.46
2019-02-05T18:33:39.655Z,68.41
2019-02-05T18:36:09.972Z,68.08
2019-02-05T18:38:39.948Z,67.96
2019-02-05T18:41:09.474Z,68.47
2019-02-05T18:43:38.993Z,68.36
2019-02-05T18:46:08.559Z,68.13
2019-02-05T18:48:38.126Z,68.08
2019-02-05T18:51:07.929Z,67.88
2019-02-05T18:53:37.609Z,67.53
2019-02-05T18:56:07.359Z,67.36
2019-02-05T18:58:37.289Z,67.98
2019-02-05T19:01:07.483Z,67.04
2019-02-05T19:03:36.977Z,66.47
2019-02-05T19:06:07.580Z,66.36
2019-02-05T19:08:37.101Z,66.07
2019-02-05T19:11:07.041Z,65.65
2019-02-05T19:13:36.724Z,65.53
2019-02-05T19:16:06.421Z,65.06
2019-02-05T19:18:36.910Z,65.55
2019-02-05T19:21:06.521Z,65.90
2019-02-05T19:23:36.160Z,66.09
2019-02-05T19:26:09.850Z,66.20
2019-02-05T19:28:41.188Z,66.13
2019-02-05T19:31:41.484Z,66.55
2019-02-05T19:34:11.342Z,66.28
2019-02-05T19:36:42.501Z,66.29
2019-02-05T19:39:12.176Z,66.04
2019-02-05T19:41:41.663Z,66.18
2019-02-05T19:44:11.226Z,65.80
2019-02-05T19:46:47.355Z,65.79
2019-02-05T19:49:36.423Z,65.62
2019-02-05T19:52:06.652Z,65.85
2019-02-05T19:54:36.285Z,65.54
2019-02-05T19:57:05.841Z,65.59
2019-02-05T19:59:36.641Z,65.80
2019-02-05T20:02:06.732Z,65.89
2019-02-05T20:04:36.339Z,65.95
2019-02-05T20:07:05.984Z,66.04
2019-02-05T20:09:36.383Z,66.59
2019-02-05T20:12:06.252Z,67.12
2019-02-05T20:14:36.159Z,66.83
2019-02-05T20:17:06.373Z,67.17
2019-02-05T20:19:36.182Z,66.87
2019-02-05T20:22:06.036Z,66.55
2019-02-05T20:24:35.843Z,66.21
2019-02-05T20:27:05.693Z,66.40
2019-02-05T20:29:35.478Z,66.41
2019-02-05T20:32:05.372Z,66.77
2019-02-05T20:34:35.819Z,66.59
2019-02-05T20:37:05.477Z,66.89
2019-02-05T20:39:35.282Z,66.75
2019-02-05T20:42:05.031Z,66.93
2019-02-05T20:44:34.910Z,66.64
2019-02-05T20:47:05.863Z,66.18
2019-02-05T20:49:35.563Z,66.78
2019-02-05T20:52:05.141Z,66.47
2019-02-05T20:54:35.234Z,66.74
2019-02-05T20:57:04.874Z,66.58
2019-02-05T20:59:34.438Z,66.77
2019-02-05T21:02:04.111Z,67.01
2019-02-05T21:04:35.553Z,66.48
2019-02-05T21:07:05.670Z,66.64
2019-02-05T21:09:35.545Z,66.87
2019-02-05T21:12:05.230Z,66.77
2019-02-05T21:14:34.764Z,67.21
2019-02-05T21:17:04.513Z,66.65
2019-02-05T21:19:34.617Z,67.11
2019-02-05T21:22:04.264Z,66.84
2019-02-05T21:24:33.840Z,67.27
2019-02-05T21:27:03.391Z,66.84
2019-02-05T21:29:33.165Z,66.80
2019-02-05T21:32:03.453Z,66.79
2019-02-05T21:34:33.174Z,66.68
2019-02-05T21:37:02.683Z,66.70
2019-02-05T21:39:32.181Z,66.83
2019-02-05T21:42:02.256Z,67.04
2019-02-05T21:44:32.028Z,66.96
2019-02-05T21:47:01.860Z,67.06
2019-02-05T21:49:32.783Z,66.80
2019-02-05T21:52:02.311Z,66.47
2019-02-05T21:54:32.113Z,66.61
2019-02-05T21:57:01.770Z,66.43
2019-02-05T21:59:31.271Z,66.45
2019-02-05T22:02:00.882Z,66.53
2019-02-05T22:04:30.441Z,66.17
2019-02-05T22:07:00.490Z,66.21
2019-02-05T22:09:30.198Z,65.84
2019-02-05T22:11:59.764Z,66.09
2019-02-05T22:14:29.739Z,66.58
2019-02-05T22:16:59.262Z,66.85
2019-02-05T22:19:28.779Z,67.09
2019-02-05T22:21:58.408Z,66.34
2019-02-05T22:24:27.946Z,66.68
2019-02-05T22:26:57.455Z,66.05
2019-02-05T22:29:26.986Z,66.16
2019-02-05T22:31:56.713Z,65.98
2019-02-05T22:34:38.545Z,66.49
2019-02-05T22:36:58.103Z,65.96
2019-02-05T22:39:27.997Z,65.69
2019-02-05T22:41:57.518Z,65.86
2019-02-05T22:44:27.012Z,66.35
2019-02-05T22:46:56.865Z,66.79
2019-02-05T22:49:26.378Z,67.10
2019-02-05T22:51:56.354Z,66.79
2019-02-05T22:54:25.869Z,66.84
2019-02-05T22:56:55.409Z,66.11
2019-02-05T22:59:25.216Z,66.17
2019-02-05T23:01:56.955Z,65.25
2019-02-05T23:04:53.733Z,65.18
2019-02-05T23:07:25.043Z,65.16
2019-02-05T23:10:38.217Z,65.12
2019-02-05T23:13:10.598Z,65.05
2019-02-05T23:15:42.966Z,65.02
2019-02-05T23:18:13.048Z,65.35
2019-02-05T23:20:42.553Z,64.57
2019-02-05T23:23:12.260Z,64.45
2019-02-05T23:25:41.762Z,64.09
2019-02-05T23:28:11.361Z,64.08
2019-02-05T23:30:41.104Z,64.13
2019-02-05T23:33:11.337Z,64.12
2019-02-05T23:35:41.497Z,64.18
2019-02-05T23:38:11.034Z,64.32
2019-02-05T23:40:40.528Z,64.02
2019-02-05T23:43:10.198Z,64.68
2019-02-05T23:45:39.799Z,64.56
2019-02-05T23:48:09.769Z,64.69
2019-02-05T23:50:39.617Z,64.35
2019-02-05T23:53:09.403Z,64.49
2019-02-05T23:55:38.898Z,65.07
2019-02-05T23:58:08.767Z,64.51
